Time;durP1;ratioP1;P1;durP2;ratioP2;P2;SDS_P1;SDS_P2;PMS_P1;PMS_P2;Temp;Humidity;BMP_temperature;BMP_pressure;BME280_temperature;BME280_humidity;BME280_pressure;Samples;Min_cycle;Max_cycle;Signal;HPM_P1;HPM_P2
2022/08/26 00:01:41;;;;;;;26.58;20.05;;;21.80;99.90;;;;;;4956256;28;20106;-71
2022/08/26 00:04:08;;;;;;;29.58;18.80;;;21.80;99.90;;;;;;4956712;28;20550;-73
2022/08/26 00:06:34;;;;;;;24.08;17.42;;;21.80;99.90;;;;;;4956817;28;20046;-72
2022/08/26 00:09:00;;;;;;;25.33;17.90;;;20.80;99.90;;;;;;4956281;28;20470;-74
2022/08/26 00:11:27;;;;;;;25.75;19.45;;;21.80;99.90;;;;;;4956960;28;20500;-70
2022/08/26 00:13:53;;;;;;;21.73;16.92;;;21.60;99.90;;;;;;4956894;28;20042;-76
2022/08/26 00:16:19;;;;;;;27.38;19.10;;;21.60;99.90;;;;;;4956695;28;20114;-76
2022/08/26 00:18:45;;;;;;;24.35;18.30;;;21.60;99.90;;;;;;4956413;28;20102;-76
2022/08/26 00:21:11;;;;;;;27.08;19.67;;;21.60;99.90;;;;;;4955570;28;20031;-72
2022/08/26 00:23:37;;;;;;;23.33;18.02;;;21.60;99.90;;;;;;4954682;29;20113;-74
2022/08/26 00:26:04;;;;;;;26.98;20.05;;;21.60;99.90;;;;;;4955147;28;20035;-76
2022/08/26 00:28:30;;;;;;;26.10;18.73;;;21.60;99.90;;;;;;4954614;28;20493;-76
2022/08/26 00:30:56;;;;;;;27.17;18.52;;;21.60;99.90;;;;;;4957937;28;20034;-70
2022/08/26 00:33:22;;;;;;;24.77;18.80;;;21.60;99.90;;;;;;4954976;28;20019;-68
2022/08/26 00:35:48;;;;;;;30.85;20.27;;;21.60;99.90;;;;;;4954882;28;20450;-72
2022/08/26 00:38:14;;;;;;;26.17;19.45;;;21.60;99.90;;;;;;4955028;28;20038;-74
2022/08/26 00:40:52;;;;;;;24.65;18.35;;;21.70;99.90;;;;;;4955171;28;20102;-77
2022/08/26 00:43:18;;;;;;;25.10;18.25;;;21.70;99.90;;;;;;4951826;28;20389;-77
2022/08/26 00:45:47;;;;;;;24.27;18.08;;;21.60;99.90;;;;;;4954122;28;20051;-74
2022/08/26 00:48:17;;;;;;;26.95;18.48;;;21.60;99.90;;;;;;4954395;29;20362;-75
2022/08/26 00:50:51;;;;;;;24.48;18.83;;;21.70;99.90;;;;;;4954628;28;20111;-76
2022/08/26 00:53:22;;;;;;;25.63;17.83;;;21.60;99.90;;;;;;4954552;28;20511;-77
2022/08/26 00:56:01;;;;;;;26.80;19.83;;;21.60;99.90;;;;;;4954769;28;20534;-72
2022/08/26 00:58:30;;;;;;;39.03;19.25;;;;;;;;;;4955150;28;20039;-70
2022/08/26 01:00:56;;;;;;;31.15;20.48;;;18.90;99.90;;;;;;4954637;29;20141;-77
2022/08/26 01:03:24;;;;;;;24.92;18.48;;;21.50;99.90;;;;;;4954462;28;20122;-77
2022/08/26 01:05:56;;;;;;;28.00;18.15;;;21.40;99.90;;;;;;4947054;29;20027;-76
2022/08/26 01:08:23;;;;;;;22.58;18.00;;;21.40;99.90;;;;;;4950965;29;20122;-77
2022/08/26 01:10:51;;;;;;;35.58;20.58;;;21.50;99.90;;;;;;4955860;28;20031;-77
2022/08/26 01:13:17;;;;;;;24.38;18.25;;;;;;;;;;4955098;28;20119;-77
2022/08/26 01:15:46;;;;;;;31.17;18.02;;;21.50;99.90;;;;;;4955484;28;20023;-76
2022/08/26 01:18:13;;;;;;;26.25;19.45;;;21.50;99.90;;;;;;4955615;28;20047;-75
2022/08/26 01:21:10;;;;;;;26.75;18.98;;;21.50;99.90;;;;;;4955692;28;20381;-77
2022/08/26 01:23:43;;;;;;;27.00;18.92;;;21.50;99.90;;;;;;4959883;28;20129;-77
2022/08/26 01:26:19;;;;;;;27.85;20.10;;;21.50;99.90;;;;;;4955563;29;20079;-76
2022/08/26 01:28:45;;;;;;;23.67;18.30;;;21.50;99.90;;;;;;4955049;28;20031;-77
2022/08/26 01:31:14;;;;;;;29.42;19.73;;;21.80;99.90;;;;;;4953332;28;20027;-74
2022/08/26 01:34:02;;;;;;;30.08;19.80;;;21.50;99.90;;;;;;4955514;28;20038;-77
2022/08/26 01:36:29;;;;;;;26.00;18.85;;;21.40;99.90;;;;;;4951105;28;20370;-76
2022/08/26 01:38:55;;;;;;;29.25;19.50;;;21.40;99.90;;;;;;4953882;28;20470;-70
2022/08/26 01:41:22;;;;;;;29.58;19.02;;;21.30;99.90;;;;;;4953235;29;20034;-70
2022/08/26 01:43:51;;;;;;;28.52;19.08;;;21.30;99.90;;;;;;4953394;28;20605;-76
2022/08/26 01:46:18;;;;;;;24.58;19.45;;;21.30;99.90;;;;;;4953545;28;20162;-68
2022/08/26 01:48:45;;;;;;;26.38;19.70;;;21.40;99.90;;;;;;4953437;28;20031;-75
2022/08/26 01:51:12;;;;;;;27.10;19.67;;;21.30;99.90;;;;;;4953754;29;20027;-74
2022/08/26 01:53:40;;;;;;;29.38;20.63;;;21.30;99.90;;;;;;4953610;28;20474;-74
2022/08/26 01:56:08;;;;;;;29.02;18.85;;;21.30;99.90;;;;;;4953844;28;20031;-76
2022/08/26 01:58:40;;;;;;;27.55;20.50;;;21.20;99.90;;;;;;4953624;28;20023;-76
2022/08/26 02:01:06;;;;;;;29.85;18.92;;;21.20;99.90;;;;;;4953432;28;20433;-68
2022/08/26 02:03:35;;;;;;;26.00;18.70;;;21.20;99.90;;;;;;4954470;28;20047;-77
2022/08/26 02:06:05;;;;;;;28.52;19.90;;;21.20;99.90;;;;;;4955002;28;20039;-63
2022/08/26 02:08:41;;;;;;;33.05;19.45;;;21.20;99.90;;;;;;4954546;28;20027;-74
2022/08/26 02:11:08;;;;;;;34.17;19.80;;;21.20;99.90;;;;;;4954899;28;20027;-77
2022/08/26 02:13:39;;;;;;;25.75;19.08;;;21.20;99.90;;;;;;4954409;28;20023;-77
2022/08/26 02:16:06;;;;;;;34.20;19.53;;;21.20;99.90;;;;;;4954487;28;20035;-77
2022/08/26 02:18:36;;;;;;;33.85;20.23;;;21.20;99.90;;;;;;4954364;28;20121;-63
2022/08/26 02:21:03;;;;;;;26.33;18.77;;;21.20;99.90;;;;;;4955003;28;20386;-75
2022/08/26 02:23:28;;;;;;;27.13;19.23;;;21.30;99.90;;;;;;4959112;28;20030;-77
2022/08/26 02:26:14;;;;;;;29.85;19.70;;;21.10;99.90;;;;;;4955543;28;20381;-77
2022/08/26 02:29:02;;;;;;;28.00;19.20;;;21.20;99.90;;;;;;4954823;28;20043;-76
2022/08/26 02:31:28;;;;;;;27.70;18.38;;;21.20;99.90;;;;;;4955172;28;20059;-76
2022/08/26 02:33:54;;;;;;;25.63;18.60;;;21.20;99.90;;;;;;4955000;28;20030;-77
2022/08/26 02:36:22;;;;;;;23.45;18.20;;;21.20;99.90;;;;;;4954692;28;20031;-75
2022/08/26 02:38:48;;;;;;;30.73;19.92;;;21.20;99.90;;;;;;4955078;28;20027;-77
2022/08/26 02:41:14;;;;;;;25.20;19.05;;;21.20;99.90;;;;;;4954987;28;20042;-76
2022/08/26 02:43:40;;;;;;;25.05;19.17;;;21.10;99.90;;;;;;4953273;29;20054;-77
2022/08/26 02:46:06;;;;;;;30.45;17.83;;;21.10;99.90;;;;;;4944445;28;20051;-77
2022/08/26 02:48:32;;;;;;;29.30;19.05;;;21.20;99.90;;;;;;4968347;28;20053;-72
2022/08/26 02:51:01;;;;;;;28.73;18.80;;;21.20;99.90;;;;;;4954950;28;20015;-76
2022/08/26 02:53:27;;;;;;;26.45;17.83;;;21.10;99.90;;;;;;4955618;28;20138;-75
2022/08/26 02:55:54;;;;;;;29.10;19.50;;;21.10;99.90;;;;;;4955881;28;20028;-77
2022/08/26 02:58:20;;;;;;;27.27;19.35;;;21.10;99.90;;;;;;4954589;28;20027;-77
2022/08/26 03:00:46;;;;;;;27.08;18.30;;;21.10;99.90;;;;;;4954318;28;20042;-77
2022/08/26 03:03:14;;;;;;;26.95;18.88;;;21.20;99.90;;;;;;4953743;28;20036;-77
2022/08/26 03:05:41;;;;;;;26.45;17.90;;;21.10;99.90;;;;;;4954599;28;20070;-76
2022/08/26 03:08:10;;;;;;;28.48;18.30;;;21.10;99.90;;;;;;4954175;28;20020;-77
2022/08/26 03:10:37;;;;;;;25.63;18.38;;;21.20;99.90;;;;;;4953938;28;20023;-77
2022/08/26 03:13:03;;;;;;;28.65;18.50;;;21.20;99.90;;;;;;4953492;28;20086;-77
2022/08/26 03:15:29;;;;;;;28.45;17.27;;;21.20;99.90;;;;;;4955016;28;20031;-74
2022/08/26 03:17:55;;;;;;;27.50;18.23;;;21.10;99.90;;;;;;4955069;28;20016;-77
2022/08/26 03:20:21;;;;;;;27.80;18.17;;;21.10;99.90;;;;;;4954158;28;20536;-75
2022/08/26 03:22:48;;;;;;;32.15;18.98;;;21.10;99.90;;;;;;4953865;28;20122;-76
2022/08/26 03:25:15;;;;;;;25.48;17.45;;;21.30;99.90;;;;;;4954701;28;20035;-76
2022/08/26 03:27:42;;;;;;;29.20;19.83;;;21.20;99.90;;;;;;4954436;28;20043;-75
2022/08/26 03:32:53;;;;;;;30.73;19.52;;;21.10;99.90;;;;;;4954647;28;20073;-77
2022/08/26 03:35:19;;;;;;;31.58;19.15;;;21.10;99.90;;;;;;4955320;28;20106;-77
2022/08/26 03:37:45;;;;;;;26.38;19.88;;;21.10;99.90;;;;;;4957989;28;20019;-77
2022/08/26 03:40:11;;;;;;;29.02;19.00;;;21.10;99.90;;;;;;4957070;28;20027;-76
2022/08/26 03:42:39;;;;;;;26.23;18.42;;;;;;;;;;4957809;28;20027;-78
2022/08/26 03:45:07;;;;;;;25.17;19.17;;;21.00;99.90;;;;;;4958124;28;20051;-77
2022/08/26 03:47:33;;;;;;;27.08;18.55;;;20.90;99.90;;;;;;4958482;28;20035;-78
2022/08/26 03:49:59;;;;;;;24.75;18.35;;;21.00;99.90;;;;;;4969298;28;20016;-77
2022/08/26 03:56:20;;;;;;;30.02;19.80;;;21.10;99.90;;;;;;5262549;23;20114;-77
2022/08/26 03:58:45;;;;;;;29.45;20.92;;;21.00;99.90;;;;;;4950910;28;20458;-77
2022/08/26 04:01:12;;;;;;;31.10;20.13;;;21.00;99.90;;;;;;4951958;28;20491;-76
2022/08/26 04:03:56;;;;;;;30.73;20.17;;;21.10;99.90;;;;;;4961826;28;20704;-75
2022/08/26 04:06:47;;;;;;;27.73;19.20;;;21.00;99.90;;;;;;4949841;28;20030;-76
2022/08/26 04:09:18;;;;;;;26.33;17.83;;;21.00;99.90;;;;;;4950607;28;20382;-76
2022/08/26 04:11:45;;;;;;;27.93;19.63;;;21.10;99.90;;;;;;4955242;28;20027;-77
2022/08/26 04:14:14;;;;;;;24.05;18.23;;;21.10;99.90;;;;;;4955911;28;20031;-76
2022/08/26 04:16:41;;;;;;;31.50;18.70;;;21.10;99.90;;;;;;4965430;28;20078;-77
2022/08/26 04:19:09;;;;;;;24.23;18.10;;;21.30;99.90;;;;;;4956157;28;20031;-76
2022/08/26 04:21:37;;;;;;;27.77;18.65;;;21.40;99.90;;;;;;4955729;28;20036;-75
2022/08/26 04:24:04;;;;;;;24.50;17.50;;;21.50;99.90;;;;;;4955004;28;20031;-78
2022/08/26 04:26:35;;;;;;;25.08;17.90;;;21.60;99.90;;;;;;4956733;28;20027;-75
2022/08/26 04:29:07;;;;;;;27.75;18.33;;;21.70;99.90;;;;;;4956011;28;20039;-77
2022/08/26 04:31:34;;;;;;;26.80;16.63;;;22.00;99.90;;;;;;4957158;29;20030;-77
2022/08/26 04:34:01;;;;;;;27.33;17.02;;;22.10;99.90;;;;;;4956548;28;20102;-77
2022/08/26 04:36:27;;;;;;;24.73;15.90;;;22.30;99.90;;;;;;4955794;28;20038;-72
2022/08/26 04:38:54;;;;;;;23.08;15.73;;;22.60;99.90;;;;;;4955686;28;20023;-79
2022/08/26 04:41:20;;;;;;;25.48;15.85;;;22.70;99.90;;;;;;4956112;28;20042;-78
2022/08/26 04:43:47;;;;;;;28.20;16.10;;;22.90;99.90;;;;;;4955060;29;20029;-79
2022/08/26 04:46:17;;;;;;;24.52;14.73;;;23.00;99.90;;;;;;4954876;28;20027;-79
2022/08/26 04:48:43;;;;;;;23.48;15.02;;;23.10;99.90;;;;;;4954432;28;20034;-78
2022/08/26 04:51:09;;;;;;;24.48;15.07;;;23.10;99.90;;;;;;4955577;28;20028;-79
2022/08/26 04:53:36;;;;;;;19.77;13.45;;;23.40;99.90;;;;;;4954802;28;20035;-79
2022/08/26 04:56:03;;;;;;;21.52;14.27;;;23.90;99.90;;;;;;4955266;28;20047;-76
2022/08/26 04:58:28;;;;;;;22.67;13.88;;;24.20;99.90;;;;;;4953283;28;20050;-79
2022/08/26 05:00:55;;;;;;;22.00;13.15;;;;;;;;;;4954724;28;20065;-78
2022/08/26 05:03:24;;;;;;;22.45;13.88;;;24.70;99.90;;;;;;4954688;28;20035;-79
2022/08/26 05:05:50;;;;;;;27.50;13.68;;;;;;;;;;4954453;28;20062;-78
2022/08/26 05:08:19;;;;;;;26.42;13.48;;;25.40;99.90;;;;;;4954896;29;20027;-79
2022/08/26 05:10:48;;;;;;;22.60;13.35;;;25.70;99.90;;;;;;4954246;29;20027;-75
2022/08/26 05:13:17;;;;;;;22.33;14.57;;;25.80;99.90;;;;;;4955121;28;20085;-79
2022/08/26 05:15:44;;;;;;;22.63;13.68;;;25.30;99.90;;;;;;4954956;28;20027;-78
2022/08/26 05:18:12;;;;;;;24.85;13.82;;;24.90;99.90;;;;;;4954444;29;20089;-70
2022/08/26 05:20:44;;;;;;;37.20;14.25;;;24.80;99.90;;;;;;4954492;28;20027;-79
2022/08/26 05:23:10;;;;;;;24.00;13.60;;;24.80;99.90;;;;;;4954478;28;20039;-77
2022/08/26 05:25:39;;;;;;;19.60;13.48;;;24.80;99.90;;;;;;4954623;28;20031;-78
2022/08/26 05:28:05;;;;;;;21.30;12.38;;;24.80;99.90;;;;;;4954734;28;20046;-78
2022/08/26 05:30:31;;;;;;;22.92;12.95;;;24.80;99.90;;;;;;4954493;29;20047;-78
2022/08/26 05:32:57;;;;;;;21.63;13.43;;;24.90;99.90;;;;;;4953948;28;20031;-79
2022/08/26 05:35:30;;;;;;;21.00;13.23;;;25.00;99.90;;;;;;4969457;28;20069;-78
2022/08/26 05:37:59;;;;;;;22.27;12.98;;;25.00;99.90;;;;;;4954487;29;20027;-78
2022/08/26 05:40:26;;;;;;;25.17;14.45;;;25.20;99.90;;;;;;4954142;29;20485;-79
2022/08/26 06:01:14;;;;;;;23.90;13.45;;;25.00;99.90;;;;;;5076203;27;20401;-77
2022/08/26 06:03:43;;;;;;;21.80;13.20;;;25.20;99.90;;;;;;5060409;28;20086;-76
2022/08/26 06:06:13;;;;;;;23.42;12.93;;;25.20;99.90;;;;;;5063880;28;20494;-67
2022/08/26 06:08:39;;;;;;;19.80;12.60;;;25.20;99.90;;;;;;5065155;28;20033;-76
2022/08/26 06:11:09;;;;;;;22.60;12.65;;;25.40;99.90;;;;;;5065877;28;20032;-74
2022/08/26 06:13:36;;;;;;;28.77;13.13;;;25.30;99.90;;;;;;5066592;28;20110;-78
2022/08/26 06:16:11;;;;;;;21.17;11.88;;;25.50;99.90;;;;;;5067882;28;20029;-77
2022/08/26 06:18:40;;;;;;;19.27;12.73;;;25.60;99.90;;;;;;5067349;28;20037;-75
2022/08/26 06:21:20;;;;;;;20.08;12.75;;;25.80;99.90;;;;;;5066823;28;20021;-77
2022/08/26 06:26:34;;;;;;;27.23;13.05;;;25.80;99.90;;;;;;5067503;28;20056;-77
2022/08/26 06:29:01;;;;;;;19.23;11.45;;;25.90;99.90;;;;;;5067407;28;20039;-78
2022/08/26 06:31:28;;;;;;;21.33;12.13;;;25.80;99.90;;;;;;5067631;28;20378;-76
2022/08/26 06:33:54;;;;;;;18.75;12.27;;;25.70;99.90;;;;;;5067559;28;20101;-77
2022/08/26 06:36:24;;;;;;;21.92;12.32;;;25.90;99.90;;;;;;5067757;28;20033;-77
2022/08/26 06:38:51;;;;;;;22.02;13.85;;;26.00;99.90;;;;;;5067477;28;20056;-77
2022/08/26 06:41:19;;;;;;;19.75;12.30;;;26.00;99.90;;;;;;5066449;28;20037;-76
2022/08/26 06:43:46;;;;;;;17.50;11.68;;;26.00;99.90;;;;;;5066952;28;20028;-75
2022/08/26 06:46:15;;;;;;;26.48;12.15;;;25.90;99.90;;;;;;5067759;28;20483;-76
2022/08/26 06:48:43;;;;;;;22.13;13.75;;;26.00;99.90;;;;;;5067313;28;20514;-77
2022/08/26 06:51:13;;;;;;;18.33;12.02;;;26.00;99.90;;;;;;5066529;28;20033;-78
2022/08/26 06:53:41;;;;;;;19.98;12.20;;;26.10;99.90;;;;;;5067662;28;20032;-77
2022/08/26 06:56:08;;;;;;;21.17;11.55;;;26.20;99.90;;;;;;5067368;28;20019;-77
2022/08/26 06:58:36;;;;;;;21.58;11.48;;;26.20;99.90;;;;;;5066323;28;20746;-72
2022/08/26 07:01:02;;;;;;;20.83;10.95;;;26.40;99.90;;;;;;5058588;28;20037;-77
2022/08/26 07:03:28;;;;;;;21.42;10.93;;;26.40;99.90;;;;;;5054165;28;20029;-77
2022/08/26 07:06:00;;;;;;;18.15;10.63;;;;;;;;;;5054297;28;20032;-77
2022/08/26 07:08:26;;;;;;;;;;;26.30;99.90;;;;;;5054263;28;20029;-76
2022/08/26 07:10:53;;;;;;;17.42;11.52;;;;;;;;;;5054329;28;20012;-77
2022/08/26 07:13:21;;;;;;;20.27;11.18;;;;;;;;;;5053794;28;20387;-77
2022/08/26 07:15:47;;;;;;;22.40;11.75;;;;;;;;;;5054681;28;20074;-78
2022/08/26 07:18:13;;;;;;;24.92;12.05;;;;;;;;;;5054267;28;20029;-77
2022/08/26 07:20:40;;;;;;;23.55;12.15;;;;;;;;;;5053241;28;20402;-77
2022/08/26 07:23:10;;;;;;;24.80;10.98;;;;;;;;;;5053519;28;20036;-76
2022/08/26 07:25:40;;;;;;;16.33;11.23;;;;;;;;;;5045485;28;20037;-69
2022/08/26 07:28:06;;;;;;;14.57;10.60;;;27.10;99.90;;;;;;5050796;28;20025;-63
2022/08/26 07:30:32;;;;;;;26.02;11.52;;;27.10;99.90;;;;;;5053641;28;20549;-78
2022/08/26 07:32:58;;;;;;;16.77;11.30;;;27.10;99.90;;;;;;5054541;28;20489;-78
2022/08/26 07:35:25;;;;;;;21.40;11.85;;;27.10;99.90;;;;;;5053757;28;20103;-78
2022/08/26 07:37:51;;;;;;;21.90;12.10;;;27.10;99.90;;;;;;5053890;28;20119;-66
2022/08/26 07:40:17;;;;;;;16.90;12.07;;;27.50;99.90;;;;;;5053702;28;20021;-78
2022/08/26 07:42:43;;;;;;;17.15;12.05;;;27.60;99.90;;;;;;5053423;28;20037;-78
2022/08/26 07:45:09;;;;;;;19.95;12.52;;;27.50;99.90;;;;;;5054131;28;20363;-78
2022/08/26 07:47:35;;;;;;;18.42;11.63;;;27.40;99.90;;;;;;5053126;28;20081;-78
2022/08/26 07:50:01;;;;;;;18.13;11.57;;;27.60;99.90;;;;;;5052159;28;20041;-78
2022/08/26 07:52:29;;;;;;;17.42;10.88;;;27.80;99.90;;;;;;5052137;28;20119;-75
2022/08/26 07:54:57;;;;;;;33.78;11.80;;;27.80;99.90;;;;;;5053008;28;20033;-74
2022/08/26 07:57:25;;;;;;;18.35;10.82;;;27.70;99.90;;;;;;5052518;28;20033;-77
2022/08/26 07:59:51;;;;;;;18.67;11.85;;;27.90;99.90;;;;;;5052679;28;20174;-77
2022/08/26 08:02:17;;;;;;;22.08;11.48;;;27.90;99.90;;;;;;5041703;28;20094;-77
2022/08/26 08:04:43;;;;;;;15.98;10.80;;;27.80;99.90;;;;;;5051879;28;20480;-77
2022/08/26 08:07:09;;;;;;;14.93;9.35;;;;;;;;;;5052153;28;20048;-77
2022/08/26 08:09:35;;;;;;;19.85;9.52;;;27.90;99.90;;;;;;5051438;28;20033;-76
2022/08/26 08:12:02;;;;;;;21.30;9.55;;;28.10;99.90;;;;;;5051757;28;20036;-77
2022/08/26 08:14:28;;;;;;;15.25;10.32;;;28.20;99.90;;;;;;5050745;28;20028;-75
2022/08/26 08:16:53;;;;;;;18.63;9.90;;;28.10;99.90;;;;;;5052685;28;20027;-77
2022/08/26 08:19:19;;;;;;;20.75;11.00;;;28.10;99.90;;;;;;5052065;28;20053;-77
2022/08/26 08:21:45;;;;;;;16.23;10.90;;;28.40;99.90;;;;;;5052263;28;20128;-77
2022/08/26 08:24:11;;;;;;;17.40;11.20;;;28.60;99.90;;;;;;5051484;28;20025;-77
2022/08/26 08:26:38;;;;;;;17.42;10.00;;;28.70;99.90;;;;;;5052019;28;20029;-78
2022/08/26 08:29:04;;;;;;;14.32;9.40;;;;;;;;;;5052151;28;20069;-77
2022/08/26 08:31:33;;;;;;;15.50;9.93;;;28.70;99.90;;;;;;5052334;28;20036;-77
2022/08/26 08:33:59;;;;;;;14.35;8.95;;;;;;;;;;5051745;28;20036;-77
2022/08/26 08:36:25;;;;;;;19.00;9.45;;;28.90;99.90;;;;;;5052106;28;20035;-76
2022/08/26 08:38:51;;;;;;;17.85;9.95;;;28.90;99.90;;;;;;5052209;28;20108;-77
2022/08/26 08:41:26;;;;;;;16.00;9.40;;;28.70;99.90;;;;;;5051562;28;20104;-77
2022/08/26 08:43:54;;;;;;;17.35;10.63;;;28.90;99.90;;;;;;5050506;28;20070;-77
2022/08/26 08:46:20;;;;;;;14.05;8.80;;;29.00;99.90;;;;;;5052201;28;20378;-76
2022/08/26 08:48:50;;;;;;;17.77;9.65;;;28.90;99.90;;;;;;5051557;28;20531;-77
2022/08/26 08:51:30;;;;;;;16.30;10.35;;;28.90;99.90;;;;;;5052219;28;20032;-79
2022/08/26 08:53:58;;;;;;;17.38;9.77;;;28.80;99.90;;;;;;5050961;28;20036;-78
2022/08/26 08:56:33;;;;;;;19.17;10.98;;;28.90;99.90;;;;;;5051938;28;20056;-78
2022/08/26 08:59:04;;;;;;;22.73;11.15;;;28.90;99.90;;;;;;5051945;28;20052;-78
2022/08/26 09:01:44;;;;;;;15.23;9.38;;;29.00;99.90;;;;;;5033144;28;20170;-75
2022/08/26 09:04:14;;;;;;;18.00;9.85;;;29.00;99.90;;;;;;5039594;28;20032;-78
2022/08/26 09:06:44;;;;;;;16.83;8.95;;;29.60;99.90;;;;;;5045511;28;20028;-77
2022/08/26 09:09:16;;;;;;;17.92;11.20;;;;;;;;;;5046614;28;20033;-77
2022/08/26 09:11:42;;;;;;;;;;;29.20;99.90;;;;;;5046815;28;20051;-79
2022/08/26 09:14:09;;;;;;;18.30;10.07;;;;;;;;;;5046984;28;19908;-78
2022/08/26 09:16:50;;;;;;;15.73;9.10;;;29.50;99.90;;;;;;5048737;28;20025;-78
2022/08/26 09:19:16;;;;;;;17.45;9.50;;;29.40;99.90;;;;;;5049099;28;20017;-78
2022/08/26 09:21:42;;;;;;;14.63;9.10;;;29.40;99.90;;;;;;5049637;28;20021;-78
2022/08/26 09:24:10;;;;;;;17.30;9.00;;;;;;;;;;5049619;28;20427;-75
2022/08/26 09:26:38;;;;;;;12.57;8.63;;;29.60;99.90;;;;;;5050168;28;20414;-78
2022/08/26 09:29:27;;;;;;;14.05;9.15;;;29.60;99.90;;;;;;5049830;28;20028;-79
2022/08/26 09:32:14;;;;;;;17.63;8.85;;;29.50;99.90;;;;;;5049709;28;20032;-79
2022/08/26 09:35:06;;;;;;;14.05;9.00;;;29.80;99.90;;;;;;5049005;28;20108;-78
2022/08/26 09:37:38;;;;;;;14.30;9.45;;;30.00;99.90;;;;;;5048657;28;20058;-76
2022/08/26 09:40:15;;;;;;;15.70;8.25;;;;;;;;;;5048682;28;20378;-74
2022/08/26 09:42:40;;;;;;;11.52;8.20;;;30.10;99.90;;;;;;5049514;28;20471;-76
2022/08/26 09:45:09;;;;;;;13.93;8.07;;;30.00;99.90;;;;;;5049444;28;20029;-68
2022/08/26 09:47:43;;;;;;;15.63;8.90;;;30.10;99.90;;;;;;5049303;28;20542;-73
2022/08/26 09:50:22;;;;;;;16.67;7.95;;;30.00;99.90;;;;;;5048858;28;20198;-76
2022/08/26 09:53:08;;;;;;;14.52;9.18;;;30.30;99.90;;;;;;5063803;28;20021;-67
2022/08/26 09:55:34;;;;;;;20.30;8.98;;;;;;;;;;5047862;28;20064;-74
2022/08/26 09:58:00;;;;;;;16.45;7.78;;;30.50;99.90;;;;;;5048580;28;20499;-64
2022/08/26 10:00:36;;;;;;;11.27;7.57;;;;;;;;;;5049227;28;20059;-67
2022/08/26 10:03:22;;;;;;;13.63;7.40;;;30.80;99.90;;;;;;5036327;28;20021;-62
2022/08/26 10:06:11;;;;;;;15.77;8.10;;;30.70;99.90;;;;;;5049704;28;20542;-76
2022/08/26 10:08:41;;;;;;;21.90;7.97;;;30.80;99.90;;;;;;5049675;28;20543;-76
2022/08/26 10:11:36;;;;;;;22.17;8.27;;;30.60;99.90;;;;;;5048560;28;20032;-75
2022/08/26 10:14:14;;;;;;;14.45;8.05;;;30.70;99.90;;;;;;5026639;28;20033;-76
2022/08/26 10:17:07;;;;;;;15.85;8.05;;;30.60;99.90;;;;;;5014752;28;20121;-75
2022/08/26 10:19:42;;;;;;;15.23;8.38;;;30.40;98.30;;;;;;5026214;28;20049;-74
2022/08/26 10:22:24;;;;;;;12.95;7.88;;;30.60;98.20;;;;;;5026970;28;20030;-76
2022/08/26 10:24:53;;;;;;;;;;;30.60;97.40;;;;;;5026934;28;20040;-79
2022/08/26 10:27:48;;;;;;;11.20;6.95;;;30.60;99.90;;;;;;5027381;28;19905;-79
2022/08/26 10:30:21;;;;;;;11.88;6.68;;;30.90;99.90;;;;;;5025065;28;20120;-77
2022/08/26 10:33:13;;;;;;;15.75;8.25;;;30.90;99.10;;;;;;5026637;28;20041;-78
2022/08/26 10:35:55;;;;;;;14.30;7.63;;;30.80;95.20;;;;;;5022826;28;20071;-78
2022/08/26 10:38:31;;;;;;;12.57;6.85;;;30.80;96.00;;;;;;5018379;28;20088;-79
2022/08/26 10:41:03;;;;;;;11.95;6.80;;;30.80;97.00;;;;;;5022789;28;20424;-78
2022/08/26 10:43:36;;;;;;;18.63;8.80;;;30.80;96.80;;;;;;5028216;28;20025;-73
2022/08/26 10:46:07;;;;;;;12.32;7.32;;;31.00;95.80;;;;;;5030492;28;20118;-75
2022/08/26 10:48:41;;;;;;;20.20;7.93;;;31.10;97.70;;;;;;5027092;28;20417;-75
2022/08/26 10:51:11;;;;;;;13.07;8.10;;;31.20;98.20;;;;;;5041953;28;20121;-75
2022/08/26 10:53:37;;;;;;;14.60;7.25;;;31.40;99.90;;;;;;5053168;28;20115;-75
2022/08/26 10:56:11;;;;;;;15.18;7.93;;;31.40;99.90;;;;;;5053439;28;20167;-76
2022/08/26 10:59:23;;;;;;;18.83;9.10;;;31.60;99.90;;;;;;5052881;28;20036;-78
2022/08/26 11:02:09;;;;;;;14.13;8.00;;;31.60;99.90;;;;;;5030472;28;20064;-75
2022/08/26 11:04:50;;;;;;;13.57;7.38;;;31.50;99.90;;;;;;5021296;28;20057;-76
2022/08/26 11:07:36;;;;;;;13.20;6.65;;;31.70;98.50;;;;;;5017575;28;20033;-75
2022/08/26 11:10:17;;;;;;;12.38;7.55;;;31.70;99.90;;;;;;5030190;28;20334;-76
2022/08/26 11:12:46;;;;;;;12.48;5.85;;;31.60;99.10;;;;;;5023525;28;20159;-76
2022/08/26 11:15:35;;;;;;;19.48;8.35;;;31.80;99.90;;;;;;5028218;28;20506;-76
2022/08/26 11:18:06;;;;;;;18.10;7.70;;;31.80;99.90;;;;;;5030627;28;20036;-76
2022/08/26 11:20:42;;;;;;;16.10;7.25;;;31.80;99.90;;;;;;5028417;28;20038;-76
2022/08/26 11:23:11;;;;;;;12.60;6.70;;;31.90;99.90;;;;;;5022815;28;20037;-76
2022/08/26 11:25:55;;;;;;;15.25;6.25;;;32.00;99.90;;;;;;5030412;28;20038;-75
2022/08/26 11:28:37;;;;;;;11.20;6.43;;;31.80;99.90;;;;;;5030287;28;20029;-74
2022/08/26 11:31:07;;;;;;;13.93;6.53;;;31.70;99.90;;;;;;5014994;28;20149;-75
2022/08/26 11:33:50;;;;;;;14.38;7.22;;;31.70;99.10;;;;;;5044781;28;20053;-76
2022/08/26 11:36:46;;;;;;;14.95;6.22;;;32.30;99.90;;;;;;5053026;28;20029;-76
2022/08/26 11:39:18;;;;;;;14.07;6.22;;;32.30;99.90;;;;;;5052653;28;20029;-73
2022/08/26 11:41:46;;;;;;;15.63;6.68;;;32.30;99.90;;;;;;5052099;28;20037;-73
2022/08/26 11:44:22;;;;;;;14.75;6.70;;;32.40;99.90;;;;;;5052305;28;20024;-76
2022/08/26 11:46:57;;;;;;;12.45;6.32;;;32.40;99.90;;;;;;5053271;28;20043;-72
2022/08/26 11:49:23;;;;;;;16.38;6.95;;;32.50;98.80;;;;;;5050823;28;20017;-76
2022/08/26 11:51:49;;;;;;;13.55;6.68;;;32.40;99.90;;;;;;5051442;28;20055;-74
2022/08/26 11:54:19;;;;;;;12.15;6.55;;;32.30;99.90;;;;;;5052719;28;20041;-75
2022/08/26 11:56:48;;;;;;;9.63;5.80;;;32.30;99.70;;;;;;5040235;28;20069;-74
2022/08/26 11:59:32;;;;;;;12.07;5.97;;;32.20;99.90;;;;;;5032732;28;20073;-74
2022/08/26 12:01:59;;;;;;;12.43;6.65;;;32.30;99.90;;;;;;5039086;28;20264;-70
2022/08/26 12:04:30;;;;;;;18.50;6.20;;;32.10;99.90;;;;;;5051669;28;20033;-75
2022/08/26 12:06:57;;;;;;;14.63;6.28;;;32.40;99.90;;;;;;5052161;28;20020;-77
2022/08/26 12:09:29;;;;;;;13.52;5.90;;;32.50;99.90;;;;;;5049436;28;20025;-75
2022/08/26 12:12:15;;;;;;;13.63;5.22;;;32.60;99.90;;;;;;5051780;28;20021;-72
2022/08/26 12:14:42;;;;;;;12.68;5.47;;;32.30;99.90;;;;;;5051150;28;20483;-66
2022/08/26 12:17:14;;;;;;;14.10;5.95;;;32.20;99.90;;;;;;5052407;28;20312;-75
2022/08/26 12:19:40;;;;;;;16.55;6.32;;;32.30;99.90;;;;;;5052592;28;20032;-75
2022/08/26 12:22:22;;;;;;;14.43;5.72;;;32.30;99.90;;;;;;5052204;28;20025;-76
2022/08/26 12:24:57;;;;;;;13.82;5.40;;;32.30;99.30;;;;;;5050654;28;20083;-76
2022/08/26 12:27:26;;;;;;;18.40;6.53;;;32.30;99.90;;;;;;5048108;28;20024;-77
2022/08/26 12:30:13;;;;;;;11.77;5.25;;;32.50;99.90;;;;;;5052086;28;20403;-77
2022/08/26 12:32:44;;;;;;;13.10;6.40;;;32.60;95.60;;;;;;5051382;28;20035;-78
2022/08/26 12:35:13;;;;;;;19.73;5.65;;;32.80;92.00;;;;;;5051101;28;20051;-77
2022/08/26 12:37:41;;;;;;;17.23;5.90;;;32.70;91.10;;;;;;5048081;28;20108;-77
2022/08/26 12:40:26;;;;;;;17.58;9.07;;;32.70;99.90;;;;;;5051344;28;20069;-77
2022/08/26 12:42:52;;;;;;;11.85;6.03;;;32.70;90.60;;;;;;5052224;28;20029;-76
2022/08/26 12:45:28;;;;;;;20.23;6.53;;;32.50;99.90;;;;;;5052569;28;20418;-77
2022/08/26 12:47:57;;;;;;;15.27;6.40;;;32.50;99.90;;;;;;5052406;28;20037;-76
2022/08/26 12:50:27;;;;;;;9.85;5.13;;;32.50;96.20;;;;;;5051059;28;20682;-77
2022/08/26 12:53:07;;;;;;;14.27;6.85;;;32.70;99.60;;;;;;5047594;28;20036;-76
2022/08/26 12:55:55;;;;;;;15.77;6.80;;;;;;;;;;5038721;28;20028;-72
2022/08/26 12:58:25;;;;;;;21.83;7.30;;;32.90;94.80;;;;;;5049887;28;20021;-73
2022/08/26 13:01:03;;;;;;;21.95;7.05;;;33.20;99.90;;;;;;5050608;28;20041;-75
2022/08/26 13:03:44;;;;;;;18.35;7.22;;;33.10;99.90;;;;;;5051220;28;20029;-75
2022/08/26 13:06:13;;;;;;;11.38;5.65;;;;;;;;;;5051582;28;20044;-76
2022/08/26 13:09:08;;;;;;;12.63;5.68;;;33.30;99.90;;;;;;5050837;28;20029;-77
2022/08/26 13:11:40;;;;;;;19.13;6.18;;;33.20;99.90;;;;;;5051137;28;20029;-77
2022/08/26 13:14:14;;;;;;;11.70;5.05;;;33.10;99.90;;;;;;5051274;28;20142;-78
2022/08/26 13:16:40;;;;;;;18.58;4.72;;;32.90;99.90;;;;;;5051000;28;20040;-75
2022/08/26 13:19:09;;;;;;;14.95;4.88;;;;;;;;;;5050657;28;20025;-78
2022/08/26 13:21:42;;;;;;;19.65;4.82;;;32.60;99.90;;;;;;5065300;28;20086;-75
2022/08/26 13:24:12;;;;;;;24.40;6.57;;;32.40;99.90;;;;;;5051760;28;20128;-78
2022/08/26 13:26:40;;;;;;;11.23;5.18;;;;;;;;;;5050333;28;20428;-76